Time;durP1;ratioP1;P1;durP2;ratioP2;P2;SDS_P1;SDS_P2;PMS_P1;PMS_P2;Temp;Humidity;BMP_temperature;BMP_pressure;BME280_temperature;BME280_humidity;BME280_pressure;Samples;Min_cycle;Max_cycle;Signal;HPM_P1;HPM_P2
2023/05/01 00:00:08;;;;;;;8.57;3.60;;;;;;;10.41;100.00;101668.63;5018403;28;20072;-60
2023/05/01 00:02:36;;;;;;;6.82;3.25;;;;;;;10.37;100.00;101660.97;5033541;28;20107;-64
2023/05/01 00:05:06;;;;;;;6.78;3.00;;;;;;;10.38;100.00;101647.75;5033423;28;20041;-60
2023/05/01 00:07:34;;;;;;;8.80;3.53;;;;;;;10.40;100.00;101658.19;5033386;28;20053;-59
2023/05/01 00:10:02;;;;;;;9.30;3.42;;;;;;;10.37;100.00;101647.81;5025783;28;20053;-61
2023/05/01 00:12:30;;;;;;;8.35;3.17;;;;;;;10.30;100.00;101650.72;5014984;28;20049;-60
2023/05/01 00:14:59;;;;;;;7.78;3.30;;;;;;;10.32;100.00;101643.63;5013753;28;20134;-60
2023/05/01 00:17:29;;;;;;;7.68;3.40;;;;;;;10.27;100.00;101639.53;5013609;28;20080;-60
2023/05/01 00:19:58;;;;;;;7.82;3.25;;;;;;;10.24;100.00;101635.28;5013334;28;20042;-60
2023/05/01 00:22:26;;;;;;;6.65;3.38;;;;;;;10.22;100.00;101628.41;5031041;28;20045;-60
2023/05/01 00:24:55;;;;;;;9.50;3.03;;;;;;;10.20;100.00;101622.34;5032199;28;20824;-60
2023/05/01 00:27:23;;;;;;;7.25;3.40;;;;;;;10.17;100.00;101620.75;5032295;28;20412;-60
2023/05/01 00:29:51;;;;;;;7.35;4.20;;;;;;;10.14;100.00;101619.13;5029270;28;20049;-61
2023/05/01 00:32:20;;;;;;;7.28;3.35;;;;;;;10.13;100.00;101617.44;5019672;28;20092;-60
2023/05/01 00:34:49;;;;;;;10.48;3.55;;;;;;;10.08;100.00;101619.44;5032030;28;20068;-60
2023/05/01 00:37:17;;;;;;;7.03;3.25;;;;;;;10.06;100.00;101609.91;5033310;28;20054;-61
2023/05/01 00:39:45;;;;;;;8.77;3.55;;;;;;;10.03;100.00;101607.44;5034046;28;20141;-61
2023/05/01 00:42:13;;;;;;;8.80;3.17;;;;;;;9.98;100.00;101605.91;5013045;28;20849;-54
2023/05/01 00:44:42;;;;;;;8.07;3.58;;;;;;;9.94;100.00;101601.75;5010266;28;20046;-54
2023/05/01 00:47:10;;;;;;;7.03;3.20;;;;;;;9.93;100.00;101594.78;5010104;28;20050;-54
2023/05/01 00:49:40;;;;;;;10.63;3.90;;;;;;;9.90;100.00;101584.44;5008354;28;20404;-53
2023/05/01 00:52:10;;;;;;;8.38;3.70;;;;;;;9.86;100.00;101588.13;5020789;28;20045;-54
2023/05/01 00:54:39;;;;;;;6.70;3.15;;;;;;;9.85;100.00;101581.19;5012879;28;20088;-52
2023/05/01 00:57:08;;;;;;;9.43;3.65;;;;;;;9.81;100.00;101583.09;5018518;28;20417;-54
2023/05/01 00:59:38;;;;;;;7.38;3.38;;;;;;;9.79;100.00;101584.13;5029741;28;20088;-54
2023/05/01 01:02:06;;;;;;;8.85;3.33;;;;;;;9.74;100.00;101583.50;5028286;28;20097;-53
2023/05/01 01:04:34;;;;;;;8.65;3.58;;;;;;;9.73;100.00;101573.91;5028456;28;20057;-53
2023/05/01 01:07:10;;;;;;;9.43;3.60;;;;;;;9.71;100.00;101571.38;5029275;28;20045;-54
2023/05/01 01:09:48;;;;;;;10.25;4.07;;;;;;;9.69;100.00;101567.94;5033041;28;20052;-53
2023/05/01 01:12:24;;;;;;;13.20;3.60;;;;;;;9.68;100.00;101557.53;5030235;28;20045;-55
2023/05/01 01:15:00;;;;;;;9.13;3.72;;;;;;;9.62;100.00;101559.53;5029129;28;20065;-54
2023/05/01 01:17:32;;;;;;;7.30;3.33;;;;;;;9.64;100.00;101552.44;5032137;28;20053;-54
2023/05/01 01:20:24;;;;;;;8.85;3.67;;;;;;;9.68;100.00;101557.53;5032916;28;20555;-53
2023/05/01 01:23:03;;;;;;;9.30;3.50;;;;;;;9.68;100.00;101547.03;5013078;28;20057;-53
2023/05/01 01:25:55;;;;;;;8.00;3.80;;;;;;;9.73;100.00;101548.47;5013121;28;20050;-55
2023/05/01 01:28:51;;;;;;;8.93;3.42;;;;;;;9.66;100.00;101548.88;5013110;28;20533;-60
2023/05/01 01:31:29;;;;;;;8.32;3.42;;;;;;;9.67;100.00;101546.19;5021458;28;20079;-60
2023/05/01 01:34:03;;;;;;;8.73;3.78;;;;;;;9.68;100.00;101545.25;5031838;28;20042;-60
2023/05/01 01:36:38;;;;;;;7.50;3.58;;;;;;;9.70;100.00;101542.56;5033216;28;20045;-60
2023/05/01 01:39:16;;;;;;;9.20;3.70;;;;;;;9.64;100.00;101543.72;5032545;28;20038;-60
2023/05/01 01:41:51;;;;;;;9.10;3.90;;;;;;;9.63;100.00;101532.34;5022671;28;20068;-60
2023/05/01 01:44:30;;;;;;;8.50;3.47;;;;;;;9.60;100.00;101527.25;5045001;28;20046;-61
2023/05/01 01:47:00;;;;;;;9.95;3.40;;;;;;;9.59;100.00;101529.97;5013253;28;20069;-60
2023/05/01 01:49:32;;;;;;;7.35;3.28;;;;;;;9.65;100.00;101521.75;5012004;28;20096;-60
2023/05/01 01:52:02;;;;;;;8.15;3.53;;;;;;;9.61;100.00;101518.44;5029991;28;20064;-60
2023/05/01 01:54:45;;;;;;;9.60;3.70;;;;;;;9.57;100.00;101513.41;5033257;28;20045;-61
2023/05/01 01:57:16;;;;;;;8.50;3.15;;;;;;;9.57;100.00;101502.91;5031146;28;20058;-60
2023/05/01 01:59:48;;;;;;;7.95;3.53;;;;;;;9.58;100.00;101510.72;5031778;28;20041;-60
2023/05/01 02:02:20;;;;;;;;;;;;;;;9.57;100.00;101495.03;5032421;28;20064;-60
2023/05/01 02:04:51;;;;;;;9.93;4.05;;;;;;;9.54;100.00;101493.41;5031563;28;20035;-61
2023/05/01 02:07:20;;;;;;;8.98;3.95;;;;;;;9.54;100.00;101495.19;5027406;28;20065;-54
2023/05/01 02:09:52;;;;;;;10.45;3.92;;;;;;;9.52;100.00;101492.66;5028674;28;20129;-54
2023/05/01 02:12:22;;;;;;;8.25;3.67;;;;;;;9.51;100.00;101488.31;5029038;28;20140;-53
2023/05/01 02:14:53;;;;;;;10.27;3.92;;;;;;;9.52;100.00;101479.53;5029532;28;20157;-53
2023/05/01 02:17:22;;;;;;;10.57;3.67;;;;;;;9.53;100.00;101485.59;5027854;28;20053;-54
2023/05/01 02:19:53;;;;;;;9.80;3.97;;;;;;;9.53;100.00;101481.22;5026820;28;20049;-53
2023/05/01 02:22:24;;;;;;;7.80;3.40;;;;;;;9.46;100.00;101478.06;5030880;28;20050;-54
2023/05/01 02:24:54;;;;;;;10.50;3.83;;;;;;;9.46;100.00;101482.44;5032211;28;20042;-53
2023/05/01 02:27:26;;;;;;;8.90;3.58;;;;;;;9.44;100.00;101479.06;5029440;28;20080;-50
2023/05/01 02:29:54;;;;;;;8.10;3.47;;;;;;;9.42;100.00;101470.41;5012987;28;20116;-54
2023/05/01 02:32:23;;;;;;;8.20;3.38;;;;;;;9.41;100.00;101471.34;5021499;28;20041;-54
2023/05/01 02:34:53;;;;;;;9.45;3.47;;;;;;;9.44;100.00;101473.81;5025537;28;20054;-52
2023/05/01 02:37:21;;;;;;;10.98;3.40;;;;;;;9.40;100.00;101465.22;5015727;28;20104;-53
2023/05/01 02:39:49;;;;;;;9.50;3.55;;;;;;;9.45;100.00;101463.22;5012877;28;20041;-54
2023/05/01 02:42:22;;;;;;;9.57;4.03;;;;;;;9.44;100.00;101466.78;5013393;28;20121;-54
2023/05/01 02:44:55;;;;;;;9.63;3.42;;;;;;;9.55;100.00;101463.59;5012549;28;20050;-54
2023/05/01 02:47:24;;;;;;;9.40;3.50;;;;;;;9.46;100.00;101457.06;5012947;28;20054;-52
2023/05/01 02:49:54;;;;;;;9.48;3.45;;;;;;;9.45;100.00;101457.97;5026520;28;20174;-56
2023/05/01 02:52:23;;;;;;;9.68;3.85;;;;;;;9.46;100.00;101458.81;5032038;28;20059;-54
2023/05/01 02:54:51;;;;;;;7.90;3.65;;;;;;;9.45;100.00;101451.88;5029606;28;20080;-54
2023/05/01 02:57:19;;;;;;;8.02;3.55;;;;;;;9.43;100.00;101451.09;5029203;28;20045;-53
2023/05/01 02:59:51;;;;;;;6.75;3.20;;;;;;;9.45;100.00;101451.88;5031663;28;20544;-54
2023/05/01 03:02:19;;;;;;;8.63;3.47;;;;;;;9.45;100.00;101449.25;5031578;28;20049;-52
2023/05/01 03:04:47;;;;;;;7.10;3.25;;;;;;;9.42;100.00;101447.63;5035352;28;20063;-55
2023/05/01 03:07:17;;;;;;;9.50;3.40;;;;;;;9.44;100.00;101440.50;5033492;28;20107;-54
2023/05/01 03:09:45;;;;;;;6.75;3.20;;;;;;;9.44;100.00;101445.75;5026124;28;20484;-53
2023/05/01 03:12:13;;;;;;;11.75;3.65;;;;;;;9.42;100.00;101436.25;5012419;28;20128;-54
2023/05/01 03:14:44;;;;;;;7.63;3.15;;;;;;;9.45;100.00;101436.13;5012472;28;20045;-54
2023/05/01 03:17:12;;;;;;;10.57;3.50;;;;;;;9.45;100.00;101433.50;5012414;28;20046;-54
2023/05/01 03:19:41;;;;;;;6.65;3.20;;;;;;;9.47;100.00;101427.25;5011709;28;20555;-54
2023/05/01 03:22:10;;;;;;;10.60;3.38;;;;;;;9.47;100.00;101429.00;5030342;28;20384;-52
2023/05/01 03:24:39;;;;;;;8.38;3.58;;;;;;;9.46;100.00;101424.69;5034167;28;20049;-53
2023/05/01 03:27:07;;;;;;;6.80;3.20;;;;;;;9.46;100.00;101417.66;5018632;28;20128;-51
2023/05/01 03:29:38;;;;;;;9.50;4.15;;;;;;;9.51;100.00;101412.16;5013974;28;20038;-54
2023/05/01 03:32:06;;;;;;;9.40;3.65;;;;;;;9.54;100.00;101412.00;5019425;28;20069;-53
2023/05/01 03:34:35;;;;;;;9.52;4.25;;;;;;;9.54;100.00;101414.63;5017692;28;20057;-55
2023/05/01 03:37:03;;;;;;;13.50;3.85;;;;;;;9.53;100.00;101410.31;5014707;28;20378;-55
2023/05/01 03:39:31;;;;;;;10.30;4.00;;;;;;;9.53;100.00;101412.09;5023124;28;20375;-54
2023/05/01 03:42:01;;;;;;;11.07;3.55;;;;;;;9.53;100.00;101401.59;5012085;28;20049;-54
2023/05/01 03:44:29;;;;;;;9.40;3.78;;;;;;;9.55;100.00;101397.94;5017354;28;21693;-54
2023/05/01 03:46:57;;;;;;;8.65;3.70;;;;;;;9.55;100.00;101397.94;5033446;28;20512;-55
2023/05/01 03:49:25;;;;;;;8.90;3.72;;;;;;;9.53;100.00;101396.34;5025887;28;20092;-54
2023/05/01 03:51:53;;;;;;;8.25;3.60;;;;;;;9.52;100.00;101392.88;5014435;28;20056;-51
2023/05/01 03:54:21;;;;;;;9.73;3.80;;;;;;;9.52;100.00;101392.03;5014773;28;20092;-56
2023/05/01 03:56:49;;;;;;;7.50;3.83;;;;;;;9.48;100.00;101394.78;5013211;28;20502;-53
2023/05/01 03:59:19;;;;;;;12.63;3.67;;;;;;;9.43;100.00;101390.72;5015092;28;20045;-53
2023/05/01 04:01:47;;;;;;;10.82;3.80;;;;;;;9.42;100.00;101392.50;5028948;28;20075;-54
2023/05/01 04:04:15;;;;;;;7.57;3.55;;;;;;;9.40;100.00;101385.63;5029651;28;20402;-54
2023/05/01 04:06:43;;;;;;;8.40;3.95;;;;;;;9.40;100.00;101390.88;5029586;28;20119;-54
2023/05/01 04:09:12;;;;;;;9.95;3.70;;;;;;;9.38;100.00;101390.97;5030622;28;20405;-53
2023/05/01 04:11:40;;;;;;;8.32;3.92;;;;;;;9.41;100.00;101384.72;5024381;28;20049;-52
2023/05/01 04:14:08;;;;;;;11.15;3.83;;;;;;;9.41;100.00;101384.72;5018785;28;20140;-53
2023/05/01 04:16:40;;;;;;;9.25;4.25;;;;;;;9.38;100.00;101382.22;5021502;28;20049;-53
2023/05/01 04:19:09;;;;;;;7.32;3.67;;;;;;;9.40;100.00;101377.75;5031416;28;20081;-59
2023/05/01 04:21:37;;;;;;;9.82;4.22;;;;;;;9.42;100.00;101381.13;5032180;28;20049;-61
2023/05/01 04:24:06;;;;;;;7.75;3.97;;;;;;;9.44;100.00;101381.91;5033576;28;20525;-60
2023/05/01 04:26:34;;;;;;;10.27;4.25;;;;;;;9.43;100.00;101375.81;5033553;28;20575;-60
2023/05/01 04:29:05;;;;;;;8.27;3.47;;;;;;;9.42;100.00;101378.50;5032913;28;20049;-59
2023/05/01 04:31:33;;;;;;;11.05;4.25;;;;;;;9.40;100.00;101383.00;5034382;28;20120;-60
2023/05/01 04:34:05;;;;;;;8.10;3.90;;;;;;;9.40;100.00;101372.50;5034066;28;20095;-60
2023/05/01 04:36:33;;;;;;;9.55;3.85;;;;;;;9.48;100.00;101367.69;5032618;28;20068;-60
2023/05/01 04:39:02;;;;;;;9.70;4.25;;;;;;;9.47;100.00;101373.88;5031070;28;20108;-59
2023/05/01 04:41:33;;;;;;;9.75;4.18;;;;;;;9.45;100.00;101376.59;5033696;28;20168;-60
2023/05/01 04:44:01;;;;;;;9.02;3.95;;;;;;;9.48;100.00;101372.94;5032683;28;20053;-60
2023/05/01 04:46:29;;;;;;;10.50;4.70;;;;;;;9.50;100.00;101371.06;5032732;28;20076;-59
2023/05/01 04:48:58;;;;;;;10.40;4.43;;;;;;;9.46;100.00;101372.16;5027707;28;20528;-60
2023/05/01 04:51:27;;;;;;;9.73;4.68;;;;;;;9.51;100.00;101374.56;5027856;28;20068;-60
2023/05/01 04:53:58;;;;;;;12.27;5.15;;;;;;;9.55;100.00;101374.31;5033341;28;20389;-53
2023/05/01 04:56:27;;;;;;;8.18;4.63;;;;;;;9.56;100.00;101378.66;5033183;28;20049;-53
2023/05/01 04:58:55;;;;;;;8.93;4.28;;;;;;;9.48;100.00;101375.56;5033290;28;20070;-54
2023/05/01 05:01:23;;;;;;;11.27;4.85;;;;;;;9.45;100.00;101370.50;5021120;28;20104;-53
2023/05/01 05:03:51;;;;;;;10.57;4.57;;;;;;;9.47;100.00;101373.88;5016310;28;20500;-53
2023/05/01 05:06:22;;;;;;;10.43;4.50;;;;;;;9.44;100.00;101371.41;5020973;28;20046;-54
2023/05/01 05:08:52;;;;;;;8.50;4.15;;;;;;;9.45;100.00;101375.75;5009462;28;20041;-54
2023/05/01 05:11:20;;;;;;;8.65;4.72;;;;;;;9.45;100.00;101375.75;5012862;28;20100;-52
2023/05/01 05:13:48;;;;;;;10.13;4.45;;;;;;;9.48;100.00;101372.94;5011863;28;20061;-52
2023/05/01 05:16:17;;;;;;;12.05;4.65;;;;;;;9.55;100.00;101373.47;5010534;28;20074;-53
2023/05/01 05:18:45;;;;;;;10.45;4.90;;;;;;;9.56;100.00;101369.94;5010807;28;20062;-54
2023/05/01 05:21:13;;;;;;;9.38;4.60;;;;;;;9.59;100.00;101375.84;5008217;28;20044;-52
2023/05/01 05:23:41;;;;;;;9.18;4.50;;;;;;;9.64;100.00;101373.00;5010435;28;20038;-52
2023/05/01 05:26:11;;;;;;;12.90;5.07;;;;;;;9.66;100.00;101378.19;5031192;28;20107;-53
2023/05/01 05:28:39;;;;;;;8.77;4.20;;;;;;;9.71;100.00;101368.28;5029566;28;20542;-53
2023/05/01 05:31:10;;;;;;;10.18;4.50;;;;;;;9.76;100.00;101379.38;5029417;28;20042;-53
2023/05/01 05:33:38;;;;;;;10.75;4.25;;;;;;;9.81;100.00;101374.72;5028724;28;20057;-53
2023/05/01 05:36:06;;;;;;;11.32;4.93;;;;;;;9.88;100.00;101380.50;5020839;28;20627;-52
2023/05/01 05:38:35;;;;;;;9.88;4.55;;;;;;;9.90;100.00;101366.34;5014915;28;20049;-54
2023/05/01 05:41:03;;;;;;;11.55;4.70;;;;;;;9.95;100.00;101373.97;5010781;28;20044;-53
2023/05/01 05:43:32;;;;;;;8.40;4.35;;;;;;;10.00;100.00;101374.59;5012857;28;20149;-52
2023/05/01 05:46:01;;;;;;;9.52;4.45;;;;;;;10.08;100.00;101382.91;5017705;28;20501;-54
2023/05/01 05:48:29;;;;;;;12.60;4.75;;;;;;;10.08;100.00;101371.53;5027690;28;20057;-53
2023/05/01 05:50:57;;;;;;;11.60;4.30;;;;;;;10.17;100.00;101373.69;5031427;28;20069;-53
2023/05/01 05:53:28;;;;;;;10.85;4.75;;;;;;;10.19;100.00;101374.44;5028167;28;20053;-53
2023/05/01 05:55:56;;;;;;;10.48;4.65;;;;;;;10.24;100.00;101369.78;5023533;28;20476;-53
2023/05/01 05:58:25;;;;;;;9.98;4.93;;;;;;;10.26;100.00;101373.16;5009854;28;20880;-53
2023/05/01 06:00:55;;;;;;;10.13;4.80;;;;;;;10.34;100.00;101371.91;5013636;28;20116;-51
2023/05/01 06:03:23;;;;;;;9.63;4.28;;;;;;;10.41;100.00;101362.75;5016743;28;20053;-51
2023/05/01 06:05:55;;;;;;;10.05;4.93;;;;;;;10.46;100.00;101361.56;5012954;28;20052;-49
2023/05/01 06:08:23;;;;;;;12.15;5.28;;;;;;;10.56;100.00;101361.88;5015316;28;20128;-53
2023/05/01 06:10:51;;;;;;;10.82;4.65;;;;;;;10.56;100.00;101361.88;5013205;28;20061;-53
2023/05/01 06:13:19;;;;;;;10.80;5.30;;;;;;;10.65;100.00;101360.53;5016053;28;20057;-53
2023/05/01 06:15:47;;;;;;;12.07;4.93;;;;;;;10.66;100.00;101362.19;5012692;28;20045;-52
2023/05/01 06:18:17;;;;;;;11.50;4.82;;;;;;;10.73;100.00;101370.56;5013422;28;20100;-52
2023/05/01 06:20:46;;;;;;;8.73;4.93;;;;;;;10.80;100.00;101364.88;5013585;28;20080;-54
2023/05/01 06:23:14;;;;;;;10.82;4.93;;;;;;;10.79;100.00;101364.97;5015030;28;20504;-53
2023/05/01 06:25:43;;;;;;;10.07;5.13;;;;;;;10.89;100.00;101362.66;5022629;28;20144;-52
2023/05/01 06:28:11;;;;;;;10.75;5.05;;;;;;;10.92;100.00;101359.84;5031970;28;20037;-52
2023/05/01 06:30:39;;;;;;;11.25;5.25;;;;;;;10.93;100.00;101365.00;5032803;28;20447;-54
2023/05/01 06:33:08;;;;;;;12.35;5.00;;;;;;;11.07;100.00;101364.22;5033412;28;20064;-53
2023/05/01 06:35:38;;;;;;;9.02;4.97;;;;;;;11.06;100.00;101361.69;5023979;28;20049;-52
2023/05/01 06:38:07;;;;;;;9.65;4.70;;;;;;;11.11;100.00;101362.25;5034743;28;20447;-51
2023/05/01 06:40:35;;;;;;;9.00;4.53;;;;;;;11.15;100.00;101359.34;5033315;28;20037;-54
2023/05/01 06:43:03;;;;;;;10.63;5.10;;;;;;;11.17;100.00;101354.00;5032529;28;20045;-59
2023/05/01 06:45:32;;;;;;;10.80;5.18;;;;;;;11.06;100.00;101356.44;5033422;28;20080;-60
2023/05/01 06:48:00;;;;;;;9.55;5.03;;;;;;;11.09;100.00;101364.13;5029072;28;20100;-60
2023/05/01 06:50:30;;;;;;;13.60;4.80;;;;;;;11.11;100.00;101360.47;5035284;28;20559;-60
2023/05/01 06:53:01;;;;;;;12.25;4.78;;;;;;;11.10;100.00;101364.03;5033933;28;20103;-53
2023/05/01 06:55:30;;;;;;;10.35;4.88;;;;;;;11.18;100.00;101352.19;5029076;28;20215;-54
2023/05/01 06:58:00;;;;;;;11.23;5.10;;;;;;;11.20;100.00;101356.44;5023777;28;20049;-52
2023/05/01 07:00:39;;;;;;;11.65;4.88;;;;;;;11.20;100.00;101351.16;5015623;28;20076;-59
2023/05/01 07:03:13;;;;;;;10.25;4.78;;;;;;;11.22;100.00;101359.84;5016018;28;20493;-60
2023/05/01 07:05:41;;;;;;;11.50;5.70;;;;;;;11.13;100.00;101365.63;5014857;28;20042;-60
2023/05/01 07:08:11;;;;;;;11.15;5.22;;;;;;;11.19;100.00;101352.09;5013771;28;20111;-60
2023/05/01 07:10:39;;;;;;;10.25;5.90;;;;;;;11.27;100.00;101355.13;5015316;28;20037;-59
2023/05/01 07:13:09;;;;;;;10.90;5.18;;;;;;;11.32;100.00;101360.97;5028199;28;20038;-59
2023/05/01 07:15:37;;;;;;;11.55;5.00;;;;;;;11.35;100.00;101356.47;5035176;28;20092;-60
2023/05/01 07:18:05;;;;;;;12.68;5.47;;;;;;;11.43;100.00;101360.31;5034708;28;20050;-60
2023/05/01 07:20:34;;;;;;;10.75;4.85;;;;;;;11.48;100.00;101357.44;5033264;28;20045;-59
2023/05/01 07:23:02;;;;;;;8.95;4.93;;;;;;;11.52;100.00;101355.44;5034915;28;20042;-60
2023/05/01 07:25:36;;;;;;;13.05;6.10;;;;;;;11.46;100.00;101359.28;5034874;28;20057;-60
2023/05/01 07:28:06;;;;;;;11.65;5.47;;;;;;;11.55;100.00;101355.22;5033504;28;20136;-60
2023/05/01 07:30:36;;;;;;;10.82;5.50;;;;;;;11.61;100.00;101346.97;5034403;28;20055;-61
2023/05/01 07:33:05;;;;;;;12.27;5.10;;;;;;;11.73;100.00;101350.66;5029267;28;20069;-61
2023/05/01 07:35:33;;;;;;;14.25;5.30;;;;;;;11.74;100.00;101349.69;5022268;28;20045;-60
2023/05/01 07:38:01;;;;;;;11.15;5.18;;;;;;;11.80;100.00;101349.31;5015358;28;20133;-60
2023/05/01 07:40:29;;;;;;;11.05;5.45;;;;;;;11.90;100.00;101346.94;5015061;28;20061;-60
2023/05/01 07:43:02;;;;;;;9.57;5.25;;;;;;;11.92;100.00;101348.53;5016720;28;20140;-60
2023/05/01 07:45:30;;;;;;;14.20;5.32;;;;;;;12.06;100.00;101346.88;5020377;28;20405;-53
2023/05/01 07:47:59;;;;;;;10.85;5.18;;;;;;;12.09;100.00;101344.88;5011467;28;20441;-54
2023/05/01 07:50:27;;;;;;;8.45;4.70;;;;;;;12.18;100.00;101339.00;5010014;28;20054;-52
2023/05/01 07:52:56;;;;;;;10.02;5.05;;;;;;;12.33;100.00;101342.44;5011099;28;20381;-55
2023/05/01 07:55:24;;;;;;;10.88;4.85;;;;;;;12.53;100.00;101337.69;5013774;28;20072;-55
2023/05/01 07:57:55;;;;;;;9.75;5.03;;;;;;;12.62;100.00;101336.22;5029476;28;20041;-50
2023/05/01 08:00:24;;;;;;;9.98;5.30;;;;;;;12.73;100.00;101343.44;5031456;28;20519;-53
2023/05/01 08:02:52;;;;;;;10.73;5.47;;;;;;;12.84;100.00;101339.13;5032876;28;20049;-49
2023/05/01 08:05:21;;;;;;;10.95;6.03;;;;;;;13.00;100.00;101335.47;5015348;28;20050;-52
2023/05/01 08:07:49;;;;;;;10.70;5.20;;;;;;;13.18;100.00;101339.50;5010353;28;20050;-54
2023/05/01 08:10:17;;;;;;;11.63;5.40;;;;;;;13.26;100.00;101341.59;5013875;28;20177;-54
2023/05/01 08:12:45;;;;;;;10.27;5.47;;;;;;;13.36;100.00;101344.47;5009675;28;20081;-54
2023/05/01 08:15:13;;;;;;;9.57;5.10;;;;;;;13.46;100.00;101340.25;5011888;28;20518;-55
2023/05/01 08:17:43;;;;;;;14.20;5.90;;;;;;;13.53;100.00;101338.03;5010685;28;20136;-51
2023/05/01 08:20:12;;;;;;;10.98;5.60;;;;;;;13.69;100.00;101333.34;5008228;28;20148;-53
2023/05/01 08:22:41;;;;;;;11.50;6.10;;;;;;;13.81;100.00;101336.06;5010680;28;20523;-55
2023/05/01 08:25:12;;;;;;;11.05;5.30;;;;;;;13.93;100.00;101331.72;5021454;28;20041;-53
2023/05/01 08:27:40;;;;;;;12.88;4.78;;;;;;;14.04;100.00;101342.38;5024141;28;20535;-54
2023/05/01 08:30:08;;;;;;;11.55;5.28;;;;;;;14.12;100.00;101337.38;5033982;28;20061;-54
2023/05/01 08:32:36;;;;;;;12.07;5.72;;;;;;;14.22;100.00;101331.41;5033966;28;20392;-54
2023/05/01 08:35:06;;;;;;;11.07;5.10;;;;;;;14.33;100.00;101332.31;5031843;28;20451;-53
2023/05/01 08:37:35;;;;;;;8.93;4.88;;;;;;;14.60;99.66;101338.34;5032884;28;20540;-52
2023/05/01 08:40:07;;;;;;;11.95;4.93;;;;;;;14.55;100.00;101336.03;5030663;28;20568;-53
2023/05/01 08:42:36;;;;;;;12.63;6.15;;;;;;;14.73;99.78;101330.38;5029841;28;20052;-54
2023/05/01 08:45:07;;;;;;;10.43;5.85;;;;;;;14.86;100.00;101328.47;5027980;28;20084;-54
2023/05/01 08:47:37;;;;;;;14.20;5.63;;;;;;;15.01;98.10;101329.09;5028473;28;20381;-54
2023/05/01 08:50:10;;;;;;;10.40;5.35;;;;;;;15.15;95.55;101322.78;5028810;28;20519;-54
2023/05/01 08:52:40;;;;;;;9.68;5.30;;;;;;;15.17;96.44;101323.47;5029707;28;20074;-60
2023/05/01 08:55:12;;;;;;;11.32;5.28;;;;;;;15.40;94.54;101327.00;5033704;28;20401;-61
2023/05/01 08:57:45;;;;;;;9.47;5.10;;;;;;;15.50;95.75;101321.81;5022679;28;20050;-61
2023/05/01 09:00:18;;;;;;;11.32;5.60;;;;;;;15.61;93.46;101320.97;5012319;28;20095;-60
2023/05/01 09:02:48;;;;;;;9.07;5.15;;;;;;;15.94;91.34;101325.44;5012235;28;20108;-60
2023/05/01 09:05:19;;;;;;;11.13;4.60;;;;;;;16.12;89.61;101322.28;5018462;28;20095;-59
2023/05/01 09:07:48;;;;;;;12.18;5.28;;;;;;;16.48;88.78;101320.22;5027946;28;20053;-60
2023/05/01 09:10:17;;;;;;;10.05;5.50;;;;;;;16.77;88.14;101323.09;5033169;28;20357;-60
2023/05/01 09:12:50;;;;;;;9.75;5.28;;;;;;;16.92;85.13;101320.13;5013653;28;20049;-60
2023/05/01 09:15:18;;;;;;;10.23;5.18;;;;;;;17.09;82.35;101321.38;5012768;28;20425;-54
2023/05/01 09:17:47;;;;;;;12.00;5.10;;;;;;;17.34;85.03;101320.09;5012769;28;20053;-54
2023/05/01 09:20:18;;;;;;;9.82;5.10;;;;;;;17.67;83.94;101313.66;5013520;28;20081;-55
2023/05/01 09:22:47;;;;;;;9.48;5.03;;;;;;;17.95;78.89;101327.22;5031569;28;20069;-61
2023/05/01 09:25:15;;;;;;;8.80;4.50;;;;;;;18.20;75.66;101322.34;5032242;28;20045;-60
2023/05/01 09:27:44;;;;;;;10.07;4.40;;;;;;;18.43;76.00;101317.59;5032804;28;20053;-61
2023/05/01 09:30:30;;;;;;;11.60;4.75;;;;;;;18.76;73.86;101315.50;5032751;28;20137;-60
2023/05/01 09:33:05;;;;;;;8.93;4.20;;;;;;;19.02;71.46;101318.41;5025920;28;20049;-55
2023/05/01 09:35:49;;;;;;;10.07;4.68;;;;;;;19.31;67.15;101314.81;5027319;28;20552;-55
2023/05/01 09:38:22;;;;;;;7.75;4.30;;;;;;;19.37;66.18;101313.41;5028388;28;20457;-56
2023/05/01 09:40:50;;;;;;;9.43;4.25;;;;;;;19.67;67.84;101301.59;5031186;28;20557;-55
2023/05/01 09:43:26;;;;;;;8.88;4.38;;;;;;;19.88;67.93;101303.22;5023900;28;20057;-55
2023/05/01 09:46:08;;;;;;;8.13;4.38;;;;;;;20.27;64.65;101302.94;5027337;28;20144;-55
2023/05/01 09:48:37;;;;;;;8.48;3.88;;;;;;;20.64;63.89;101295.75;5028795;28;20457;-55
2023/05/01 09:51:24;;;;;;;7.47;3.40;;;;;;;20.86;59.92;101295.28;5025688;28;20045;-55
2023/05/01 09:53:53;;;;;;;7.10;3.47;;;;;;;21.12;60.09;101297.09;5013899;28;20042;-55
2023/05/01 09:56:21;;;;;;;8.07;3.88;;;;;;;21.21;59.55;101297.97;5026526;28;20087;-55
2023/05/01 09:58:52;;;;;;;7.50;3.90;;;;;;;21.44;56.86;101296.41;5029340;28;20057;-55
2023/05/01 10:01:38;;;;;;;7.28;3.55;;;;;;;21.45;56.51;101295.41;5028491;28;20041;-55
2023/05/01 10:04:07;;;;;;;7.93;3.75;;;;;;;21.67;54.62;101295.03;5027979;28;20057;-56
2023/05/01 10:06:37;;;;;;;8.07;4.10;;;;;;;21.47;54.97;101294.44;5023077;28;20058;-55
2023/05/01 10:09:15;;;;;;;8.02;3.95;;;;;;;21.49;56.46;101290.59;5015045;28;20042;-56
2023/05/01 10:11:52;;;;;;;7.93;4.10;;;;;;;21.54;53.87;101287.47;5010052;28;20386;-57
2023/05/01 10:14:22;;;;;;;7.47;3.67;;;;;;;21.57;55.88;101287.16;5010991;28;20144;-55
2023/05/01 10:16:51;;;;;;;9.57;3.95;;;;;;;21.86;57.63;101291.25;5008964;28;20049;-55
2023/05/01 10:19:21;;;;;;;8.00;3.90;;;;;;;21.80;54.52;101289.22;5013102;28;20050;-56
2023/05/01 10:21:51;;;;;;;7.85;4.40;;;;;;;21.98;54.48;101283.72;5025850;28;20053;-56
2023/05/01 10:24:19;;;;;;;9.00;4.95;;;;;;;22.40;56.39;101285.47;5028630;28;20056;-55
2023/05/01 10:26:52;;;;;;;8.52;4.40;;;;;;;22.45;55.46;101281.31;5026879;28;20433;-56
2023/05/01 10:29:24;;;;;;;9.88;4.47;;;;;;;22.83;53.06;101274.59;5011309;28;20449;-58
2023/05/01 10:31:52;;;;;;;9.18;4.60;;;;;;;23.00;52.52;101286.94;5007639;28;20061;-55
2023/05/01 10:34:25;;;;;;;9.90;4.50;;;;;;;22.97;52.72;101276.53;5013045;28;20054;-63
2023/05/01 10:37:01;;;;;;;9.82;5.00;;;;;;;22.79;53.41;101274.91;5032264;28;20037;-62
2023/05/01 10:39:32;;;;;;;7.47;3.97;;;;;;;23.04;53.67;101280.22;5032744;28;20124;-62
2023/05/01 10:42:03;;;;;;;9.00;4.70;;;;;;;23.31;52.01;101278.16;5012129;28;20501;-63
2023/05/01 10:44:33;;;;;;;10.48;4.78;;;;;;;23.67;52.03;101269.63;5012186;28;20061;-63
2023/05/01 10:47:36;;;;;;;10.48;4.32;;;;;;;24.07;50.39;101280.31;5029762;28;20104;-62
2023/05/01 10:50:05;;;;;;;7.38;3.85;;;;;;;24.10;50.69;101278.06;5034870;28;20057;-62
2023/05/01 10:53:07;;;;;;;7.90;4.53;;;;;;;23.46;50.24;101279.13;5027822;28;20435;-62
2023/05/01 10:55:37;;;;;;;7.85;4.38;;;;;;;;;;5033362;28;20049;-63
2023/05/01 10:58:05;;;;;;;7.90;4.40;;;;;;;23.94;51.44;101268.31;5015696;28;20046;-62
2023/05/01 11:00:33;;;;;;;8.52;3.90;;;;;;;24.22;50.43;101269.63;5016927;28;20091;-63
2023/05/01 11:03:40;;;;;;;7.63;4.18;;;;;;;24.32;49.14;101272.88;5033444;28;20044;-62
2023/05/01 11:06:09;;;;;;;8.00;3.97;;;;;;;24.57;47.38;101272.66;5033427;28;20053;-62
2023/05/01 11:08:39;;;;;;;8.90;3.28;;;;;;;24.84;48.72;101271.25;5033778;28;20505;-62
2023/05/01 11:11:58;;;;;;;7.40;3.65;;;;;;;25.06;47.13;101272.22;5035096;28;20053;-63
2023/05/01 11:14:28;;;;;;;9.95;4.00;;;;;;;24.70;47.51;101272.09;5009785;28;20046;-62
2023/05/01 11:16:56;;;;;;;9.88;3.83;;;;;;;25.03;48.17;101269.06;4993405;28;20084;-62
2023/05/01 11:19:49;;;;;;;8.13;3.85;;;;;;;25.43;46.60;101266.94;5003410;28;20054;-62
2023/05/01 11:22:18;;;;;;;7.03;3.60;;;;;;;25.50;44.79;101261.59;5014688;28;20058;-62
2023/05/01 11:24:46;;;;;;;7.20;3.70;;;;;;;25.59;44.21;101261.31;5025506;28;20045;-62
2023/05/01 11:27:17;;;;;;;8.63;3.78;;;;;;;25.51;44.86;101253.38;5035432;28;20046;-62
2023/05/01 11:29:48;;;;;;;7.85;3.97;;;;;;;25.40;45.87;101254.69;5034083;28;20061;-62
2023/05/01 11:32:23;;;;;;;7.57;3.78;;;;;;;25.58;44.82;101265.03;5034312;28;20073;-61
2023/05/01 11:34:52;;;;;;;8.00;4.05;;;;;;;25.47;43.44;101254.75;5033607;28;20065;-63